Time;durP1;ratioP1;P1;durP2;ratioP2;P2;SDS_P1;SDS_P2;PMS_P1;PMS_P2;Temp;Humidity;BMP_temperature;BMP_pressure;BME280_temperature;BME280_humidity;BME280_pressure;Samples;Min_cycle;Max_cycle;Signal;HPM_P1;HPM_P2
2021/01/13 00:00:31;;;;;;;19.23;9.73;;;;;;;-0.46;68.19;95918.34;1765238;77;25890;-81
2021/01/13 00:03:01;;;;;;;20.05;10.15;;;;;;;-0.53;68.45;95932.83;1764184;79;25954;-81
2021/01/13 00:05:28;;;;;;;22.00;10.05;;;;;;;-0.56;68.67;95929.70;1764147;78;29165;-81
2021/01/13 00:07:55;;;;;;;18.75;10.00;;;;;;;-0.54;68.78;95929.85;1777793;77;25744;-81
2021/01/13 00:10:23;;;;;;;17.23;9.00;;;;;;;-0.54;68.87;95929.02;1795017;77;25714;-81
2021/01/13 00:12:50;;;;;;;17.42;10.15;;;;;;;-0.54;69.07;95924.55;1782425;77;25868;-81
2021/01/13 00:15:17;;;;;;;19.00;10.35;;;;;;;-0.55;69.26;95944.60;1788809;77;25739;-81
2021/01/13 00:17:49;;;;;;;20.43;10.45;;;;;;;-0.54;69.39;95938.30;1775214;77;27583;-81
2021/01/13 00:20:17;;;;;;;12.55;7.62;;;;;;;-0.56;69.44;95941.13;1773999;77;25753;-82
2021/01/13 00:22:48;;;;;;;19.90;11.50;;;;;;;-0.60;69.65;95945.13;1781156;78;25736;-81
2021/01/13 00:25:17;;;;;;;16.80;9.85;;;;;;;-0.65;69.85;95948.00;1764241;79;26018;-81
2021/01/13 00:27:46;;;;;;;25.88;12.00;;;;;;;-0.67;69.77;95946.84;1773457;77;25781;-81
2021/01/13 00:30:18;;;;;;;22.17;11.88;;;;;;;-0.70;69.91;95943.22;1785084;77;45353;-80
2021/01/13 00:32:46;;;;;;;;;;;;;;;-0.64;70.06;95945.17;1792615;77;25925;-81
2021/01/13 00:35:14;;;;;;;19.57;11.08;;;;;;;-0.56;70.25;95942.95;1781873;79;25728;-82
2021/01/13 00:37:43;;;;;;;19.20;11.57;;;;;;;-0.50;70.20;95945.73;1764143;79;26719;-81
2021/01/13 00:40:12;;;;;;;24.18;12.23;;;;;;;-0.46;70.17;95947.00;1792400;77;25848;-81
2021/01/13 00:42:48;;;;;;;24.60;11.95;;;;;;;-0.42;70.11;95939.02;1776605;79;27495;-81
2021/01/13 00:45:19;;;;;;;33.73;20.77;;;;;;;-0.38;70.23;95938.17;1796334;77;25664;-81
2021/01/13 00:47:52;;;;;;;33.50;19.77;;;;;;;-0.37;70.08;95942.48;1774203;77;25854;-81
2021/01/13 00:50:21;;;;;;;32.20;17.77;;;;;;;-0.33;70.16;95940.27;1772476;77;25866;-81
2021/01/13 00:52:52;;;;;;;26.52;14.35;;;;;;;-0.30;70.14;95951.34;1798064;77;25716;-81
2021/01/13 00:55:21;;;;;;;22.80;13.62;;;;;;;-0.34;70.15;95949.22;1788824;77;26086;-82
2021/01/13 00:57:52;;;;;;;25.68;13.85;;;;;;;-0.39;70.25;95959.06;1813450;77;26146;-81
2021/01/13 01:00:21;;;;;;;37.70;17.40;;;;;;;-0.35;70.34;95964.30;1820505;77;25802;-81
2021/01/13 01:02:48;;;;;;;43.60;18.80;;;;;;;-0.31;70.40;95956.83;1817848;78;26349;-81
2021/01/13 01:05:16;;;;;;;37.78;17.12;;;;;;;-0.27;70.48;95968.23;1818103;77;25697;-81
2021/01/13 01:07:44;;;;;;;39.75;18.23;;;;;;;-0.25;70.58;95979.49;1818082;77;27575;-81
2021/01/13 01:10:18;;;;;;;39.73;19.30;;;;;;;-0.25;70.62;95972.86;1817949;77;25727;-81
2021/01/13 01:12:45;;;;;;;42.95;21.62;;;;;;;-0.23;70.64;95975.31;1816920;77;25729;-81
2021/01/13 01:15:13;;;;;;;61.48;28.00;;;;;;;-0.20;70.66;95975.78;1831978;77;25893;-81
2021/01/13 01:17:41;;;;;;;23.92;13.05;;;;;;;-0.15;70.70;95980.56;1818166;77;25788;-81
2021/01/13 01:20:09;;;;;;;17.50;10.72;;;;;;;-0.12;70.65;95974.38;1839214;77;27495;-81
2021/01/13 01:22:59;;;;;;;19.10;11.30;;;;;;;-0.08;70.64;95984.13;1819555;77;25735;-81
2021/01/13 01:25:30;;;;;;;18.50;10.70;;;;;;;-0.11;70.68;95976.52;1822133;77;25842;-81
2021/01/13 01:28:00;;;;;;;19.57;10.90;;;;;;;-0.15;70.75;95988.52;1830783;77;26778;-81
2021/01/13 01:30:30;;;;;;;22.55;12.15;;;;;;;-0.16;70.88;95992.17;1841703;77;25748;-81
2021/01/13 01:33:00;;;;;;;51.75;21.30;;;;;;;-0.17;70.93;95995.32;1829904;77;27557;-81
2021/01/13 01:35:27;;;;;;;38.00;15.68;;;;;;;-0.17;70.92;95985.22;1851421;77;25690;-81
2021/01/13 01:37:55;;;;;;;27.95;12.28;;;;;;;-0.15;70.83;95985.86;1830418;77;25675;-81
2021/01/13 01:40:22;;;;;;;25.15;11.22;;;;;;;-0.16;70.78;95988.20;1836281;77;25893;-81
2021/01/13 01:42:55;;;;;;;23.92;12.05;;;;;;;-0.13;70.82;95991.82;1826194;77;25849;-81
2021/01/13 01:45:26;;;;;;;12.03;7.17;;;;;;;-0.20;70.94;96000.16;1843889;76;27479;-81
2021/01/13 01:48:11;;;;;;;7.12;4.83;;;;;;;-0.23;70.68;95994.70;1833815;77;26432;-82
2021/01/13 01:50:45;;;;;;;9.13;5.37;;;;;;;-0.21;70.54;95997.17;1850099;77;25232;-81
2021/01/13 01:53:39;;;;;;;9.53;5.12;;;;;;;-0.19;70.82;96004.45;1817387;77;26740;-81
2021/01/13 01:56:27;;;;;;;13.08;7.42;;;;;;;-0.13;70.67;95999.78;1833393;77;26252;-83
2021/01/13 01:59:16;;;;;;;9.45;5.25;;;;;;;-0.08;70.63;96014.63;1851531;77;27471;-81
2021/01/13 02:01:46;;;;;;;7.65;4.90;;;;;;;-0.11;70.59;96007.03;1851455;77;25702;-83
2021/01/13 02:04:33;;;;;;;9.08;5.08;;;;;;;-0.08;70.43;96013.31;1851546;77;25772;-83
2021/01/13 02:07:22;;;;;;;9.30;4.90;;;;;;;-0.09;70.37;96010.33;1828931;77;26751;-81
2021/01/13 02:09:49;;;;;;;9.03;5.58;;;;;;;-0.07;70.52;96016.28;1818075;77;25957;-82
2021/01/13 02:12:21;;;;;;;9.50;5.28;;;;;;;-0.03;70.36;96008.30;1818095;77;28523;-81
2021/01/13 02:14:48;;;;;;;11.80;5.58;;;;;;;-0.01;70.33;95999.67;1831001;77;26027;-82
2021/01/13 02:17:20;;;;;;;7.75;4.97;;;;;;;-0.01;70.31;96006.30;1851801;77;25263;-81
2021/01/13 02:19:56;;;;;;;8.08;4.53;;;;;;;-0.04;70.30;95994.71;1840713;77;33570;-82
2021/01/13 02:22:25;;;;;;;6.87;4.53;;;;;;;-0.05;70.28;95993.06;1841726;77;25850;-82
2021/01/13 02:25:13;;;;;;;10.03;5.08;;;;;;;-0.06;70.19;96006.83;1851716;77;27575;-82
2021/01/13 02:28:05;;;;;;;7.60;4.60;;;;;;;-0.06;70.22;96008.16;1851534;77;25724;-82
2021/01/13 02:30:38;;;;;;;7.33;4.77;;;;;;;-0.08;70.36;96010.66;1833403;77;25716;-82
2021/01/13 02:33:27;;;;;;;11.50;6.15;;;;;;;-0.07;70.40;96001.70;1819865;77;25694;-81
2021/01/13 02:36:36;;;;;;;9.40;5.17;;;;;;;-0.09;70.29;96001.88;1838906;77;25850;-81
2021/01/13 02:39:07;;;;;;;8.15;4.78;;;;;;;-0.10;70.51;96011.33;1836673;77;28397;-82
2021/01/13 02:41:40;;;;;;;9.13;4.92;;;;;;;-0.09;70.48;96027.57;1827871;77;26234;-82
2021/01/13 02:44:10;;;;;;;9.98;5.62;;;;;;;-0.06;70.55;96022.74;1823138;77;25724;-82
2021/01/13 02:49:56;;;;;;;7.75;4.80;;;;;;;0.05;70.49;96043.21;1670289;84;25727;-85
2021/01/13 02:52:25;;;;;;;8.58;3.83;;;;;;;0.05;70.22;96041.38;1689088;84;27556;-84
2021/01/13 02:54:56;;;;;;;8.20;4.45;;;;;;;0.07;70.05;96038.05;1707701;83;26115;-84
2021/01/13 02:57:29;;;;;;;7.87;4.23;;;;;;;0.05;69.96;96033.92;1708061;83;26419;-84
2021/01/13 02:59:58;;;;;;;9.03;4.67;;;;;;;0.06;69.90;96043.53;1707722;83;25869;-85
2021/01/13 03:02:36;;;;;;;7.62;4.47;;;;;;;0.09;69.96;96051.14;1707410;83;25839;-84
2021/01/13 03:05:08;;;;;;;7.85;4.42;;;;;;;0.09;69.87;96037.87;1707489;83;27453;-85
2021/01/13 03:07:39;;;;;;;8.50;4.50;;;;;;;0.11;69.92;96039.35;1707417;83;25892;-85
2021/01/13 03:10:19;;;;;;;6.22;3.95;;;;;;;0.10;69.78;96036.88;1707421;83;25823;-85
2021/01/13 03:12:49;;;;;;;7.78;4.87;;;;;;;0.14;69.64;96042.95;1707385;83;25688;-84
2021/01/13 03:15:18;;;;;;;9.58;5.17;;;;;;;0.13;69.53;96032.01;1707481;83;26462;-84
2021/01/13 03:17:54;;;;;;;5.90;3.80;;;;;;;0.14;69.50;96044.28;1707423;83;27556;-84
2021/01/13 03:20:32;;;;;;;6.47;3.50;;;;;;;0.17;69.32;96037.30;1670656;83;25842;-85
2021/01/13 03:23:35;;;;;;;7.12;4.37;;;;;;;0.22;69.12;96045.55;1706565;83;25851;-85
2021/01/13 03:26:06;;;;;;;6.55;3.60;;;;;;;0.25;68.91;96045.16;1707375;83;25868;-85
2021/01/13 03:28:39;;;;;;;5.50;3.25;;;;;;;0.24;68.79;96044.84;1707347;83;26128;-85
2021/01/13 03:31:14;;;;;;;6.75;3.33;;;;;;;0.22;68.74;96038.91;1707512;83;28536;-85
2021/01/13 03:34:05;;;;;;;5.83;3.30;;;;;;;0.19;68.63;96043.25;1707372;83;25836;-86
2021/01/13 03:37:01;;;;;;;4.42;3.22;;;;;;;0.20;68.50;96042.75;1707372;83;25819;-85
2021/01/13 03:39:35;;;;;;;6.28;3.90;;;;;;;0.20;68.36;96049.38;1688999;83;25902;-84
2021/01/13 03:42:10;;;;;;;6.05;3.75;;;;;;;0.21;68.33;96045.23;1707138;83;25791;-86
2021/01/13 03:44:42;;;;;;;8.78;4.37;;;;;;;0.24;68.30;96054.66;1706268;83;27717;-86
2021/01/13 03:47:33;;;;;;;10.80;5.12;;;;;;;0.24;68.29;96050.15;1707346;83;26552;-85
2021/01/13 03:50:23;;;;;;;6.78;4.45;;;;;;;0.27;68.28;96049.80;1702785;83;25782;-86
2021/01/13 03:53:03;;;;;;;6.00;4.12;;;;;;;0.28;68.25;96044.81;1747550;81;25855;-85
2021/01/13 03:55:33;;;;;;;10.93;4.78;;;;;;;0.26;68.24;96046.81;1722116;81;25735;-86
2021/01/13 03:58:38;;;;;;;9.65;4.37;;;;;;;0.26;68.26;96048.64;1722317;82;27562;-85
2021/01/13 04:01:26;;;;;;;12.03;5.70;;;;;;;0.22;68.41;96049.53;1716232;83;25754;-85
2021/01/13 04:04:17;;;;;;;12.78;6.20;;;;;;;0.22;68.56;96054.84;1722329;82;25746;-86
2021/01/13 04:06:46;;;;;;;15.15;7.42;;;;;;;0.26;68.56;96053.45;1721606;82;26782;-86
2021/01/13 04:09:15;;;;;;;12.33;7.03;;;;;;;0.30;68.50;96049.44;1716983;83;25893;-85
2021/01/13 04:11:49;;;;;;;7.95;4.47;;;;;;;0.30;68.50;96052.59;1722332;82;28390;-86
2021/01/13 04:14:19;;;;;;;8.58;4.85;;;;;;;0.29;68.46;96057.58;1717002;83;25807;-85
2021/01/13 04:16:46;;;;;;;12.37;6.33;;;;;;;0.26;68.46;96055.28;1717044;83;25890;-86
2021/01/13 04:19:14;;;;;;;9.48;5.65;;;;;;;0.28;68.60;96063.89;1717161;83;25888;-85
2021/01/13 04:21:42;;;;;;;11.93;5.75;;;;;;;0.23;68.59;96064.45;1722247;82;25358;-86
2021/01/13 04:24:11;;;;;;;10.13;5.50;;;;;;;0.25;68.83;96070.38;1721957;82;28522;-86
2021/01/13 04:26:39;;;;;;;15.80;6.97;;;;;;;0.29;68.84;96070.85;1716822;83;25815;-86
2021/01/13 04:29:07;;;;;;;17.52;7.50;;;;;;;0.29;68.74;96055.75;1722182;82;25795;-85
2021/01/13 04:31:35;;;;;;;18.02;8.55;;;;;;;0.25;68.76;96070.38;1717035;82;25859;-86
2021/01/13 04:34:04;;;;;;;15.78;7.15;;;;;;;0.29;68.88;96066.38;1717112;83;25927;-87
2021/01/13 04:36:35;;;;;;;12.78;6.08;;;;;;;0.34;68.83;96062.69;1717458;83;27514;-86
2021/01/13 04:39:03;;;;;;;17.85;7.42;;;;;;;0.31;68.72;96071.00;1744994;81;25801;-86
2021/01/13 04:41:36;;;;;;;8.93;5.10;;;;;;;0.34;68.71;96064.02;1722156;81;25716;-86
2021/01/13 04:44:04;;;;;;;10.35;4.97;;;;;;;0.36;68.63;96059.86;1716649;83;26763;-85
2021/01/13 04:46:35;;;;;;;9.60;5.53;;;;;;;0.39;68.62;96059.97;1722161;81;26243;-86
2021/01/13 04:49:12;;;;;;;10.55;5.55;;;;;;;0.45;68.63;96056.61;1724159;82;27510;-85
2021/01/13 04:51:42;;;;;;;9.43;4.83;;;;;;;0.48;68.51;96050.44;1727390;83;25760;-86
2021/01/13 04:54:15;;;;;;;7.58;4.45;;;;;;;0.47;68.33;96059.41;1727561;83;25823;-86
2021/01/13 04:56:59;;;;;;;8.18;3.50;;;;;;;0.44;68.28;96071.71;1727054;83;26837;-85
2021/01/13 04:59:38;;;;;;;10.88;5.05;;;;;;;0.33;68.39;96074.80;1725861;83;25324;-86
2021/01/13 05:02:13;;;;;;;7.17;4.20;;;;;;;0.29;68.78;96076.16;1727492;83;27507;-86
2021/01/13 05:05:05;;;;;;;7.47;4.72;;;;;;;0.27;69.21;96086.13;1699550;82;26206;-85
2021/01/13 05:07:37;;;;;;;9.30;5.30;;;;;;;0.30;69.59;96083.95;1727570;83;25835;-85
2021/01/13 05:10:14;;;;;;;11.53;6.12;;;;;;;0.34;69.78;96074.63;1727529;83;25929;-86
2021/01/13 05:12:58;;;;;;;13.18;7.08;;;;;;;0.39;69.93;96079.38;1727163;83;25736;-86
2021/01/13 05:15:33;;;;;;;13.95;6.75;;;;;;;0.39;69.99;96074.57;1726261;83;27503;-86
2021/01/13 05:18:16;;;;;;;19.10;8.00;;;;;;;0.37;70.06;96077.41;1725275;81;25333;-86
2021/01/13 05:20:59;;;;;;;7.50;4.20;;;;;;;0.38;70.01;96085.69;1727506;83;25780;-85
2021/01/13 05:23:31;;;;;;;17.02;10.80;;;;;;;0.31;69.63;96083.45;1727350;83;25896;-86
2021/01/13 05:25:58;;;;;;;27.25;16.12;;;;;;;0.25;69.73;96088.95;1727647;81;25845;-85
2021/01/13 05:28:27;;;;;;;18.07;8.93;;;;;;;0.23;69.98;96093.64;1727285;83;27579;-86
2021/01/13 05:30:58;;;;;;;13.95;7.08;;;;;;;0.21;70.06;96100.95;1727299;81;25836;-86
2021/01/13 05:33:30;;;;;;;9.00;4.80;;;;;;;0.19;70.13;96102.13;1727631;83;25718;-88
2021/01/13 05:36:01;;;;;;;10.18;7.53;;;;;;;0.10;69.78;96105.36;1727553;81;26694;-86
2021/01/13 05:38:55;;;;;;;9.83;5.03;;;;;;;-0.05;69.72;96104.48;1727441;83;25784;-86
2021/01/13 05:41:23;;;;;;;9.20;5.90;;;;;;;-0.05;70.07;96113.77;1727434;83;26825;-87
2021/01/13 05:43:51;;;;;;;9.63;6.30;;;;;;;-0.11;69.82;96123.73;1727248;83;25796;-86
2021/01/13 05:46:21;;;;;;;11.83;7.03;;;;;;;-0.20;69.82;96126.12;1727403;83;25878;-85
2021/01/13 05:48:52;;;;;;;10.38;6.80;;;;;;;-0.28;69.96;96129.66;1726845;82;26767;-85
2021/01/13 05:51:28;;;;;;;13.58;9.25;;;;;;;-0.37;70.03;96144.80;1717293;82;26389;-88
2021/01/13 05:53:57;;;;;;;42.65;21.40;;;;;;;-0.48;70.14;96141.19;1678493;83;27582;-86
2021/01/13 05:56:26;;;;;;;17.67;10.80;;;;;;;-0.55;70.24;96155.32;1717331;83;25686;-86
2021/01/13 05:59:05;;;;;;;32.08;19.75;;;;;;;-0.59;70.25;96154.83;1722324;82;25894;-86
2021/01/13 06:01:58;;;;;;;38.23;19.30;;;;;;;-0.59;70.26;96154.83;1717212;83;25947;-85
2021/01/13 06:04:27;;;;;;;33.80;17.05;;;;;;;-0.58;70.16;96170.23;1722370;82;25780;-86
2021/01/13 06:07:24;;;;;;;39.98;20.32;;;;;;;-0.62;70.03;96176.90;1717125;83;28556;-86
2021/01/13 06:09:56;;;;;;;23.70;13.50;;;;;;;-0.66;69.96;96183.03;1706475;81;26009;-85
2021/01/13 06:12:26;;;;;;;17.82;11.55;;;;;;;-0.67;70.06;96194.62;1734803;81;25773;-85
2021/01/13 06:14:55;;;;;;;9.15;4.95;;;;;;;-0.70;70.20;96193.64;1716762;83;25857;-84
2021/01/13 06:17:25;;;;;;;12.50;7.78;;;;;;;-0.75;70.14;96194.67;1695983;83;25989;-90
2021/01/13 06:19:56;;;;;;;12.40;6.75;;;;;;;-0.82;70.18;96205.10;1697725;83;27509;-86
2021/01/13 06:22:32;;;;;;;38.80;20.00;;;;;;;-0.86;70.25;96202.98;1763167;81;25750;-86
2021/01/13 06:25:03;;;;;;;17.60;10.08;;;;;;;-0.89;70.38;96212.59;1721467;81;25611;-87
2021/01/13 06:27:59;;;;;;;48.43;24.60;;;;;;;-1.15;70.80;96197.73;1748240;81;26959;-84
2021/01/13 06:30:30;;;;;;;42.35;19.35;;;;;;;-1.15;70.80;96197.73;1750951;81;25720;-87
2021/01/13 06:33:10;;;;;;;27.22;12.10;;;;;;;-1.09;70.72;96223.53;1761093;81;27685;-87
2021/01/13 06:35:46;;;;;;;14.50;6.78;;;;;;;-1.13;70.75;96222.23;1746214;81;25792;-87
2021/01/13 06:38:34;;;;;;;54.13;23.83;;;;;;;-1.17;70.79;96227.53;1763599;81;25765;-87
2021/01/13 06:41:03;;;;;;;43.20;19.90;;;;;;;-1.16;70.91;96234.98;1738407;81;25832;-86
2021/01/13 06:43:31;;;;;;;36.17;15.93;;;;;;;-1.15;70.87;96240.11;1735107;81;25807;-86
2021/01/13 06:45:58;;;;;;;49.33;22.73;;;;;;;-1.14;70.88;96255.00;1765023;81;27488;-85
2021/01/13 06:48:29;;;;;;;26.77;14.00;;;;;;;-1.12;70.81;96263.62;1758079;81;26165;-83
2021/01/13 06:51:01;;;;;;;18.82;10.55;;;;;;;-1.09;70.77;96257.96;1746234;81;26797;-85
2021/01/13 06:53:34;;;;;;;15.10;7.80;;;;;;;-1.07;70.74;96264.42;1759233;81;25820;-85
2021/01/13 06:56:10;;;;;;;10.88;4.83;;;;;;;-1.11;70.66;96263.95;1746211;81;25851;-86
2021/01/13 06:58:38;;;;;;;8.83;3.80;;;;;;;-1.12;70.59;96264.11;1737571;81;28538;-86
2021/01/13 07:01:07;;;;;;;10.25;5.40;;;;;;;-1.16;70.56;96268.08;1723594;81;25751;-84
2021/01/13 07:03:34;;;;;;;16.95;7.50;;;;;;;-1.18;70.62;96272.20;1717041;82;25730;-83
2021/01/13 07:06:12;;;;;;;15.48;6.75;;;;;;;-1.18;70.55;96278.83;1716984;82;25887;-85
2021/01/13 07:08:39;;;;;;;24.65;9.83;;;;;;;-1.19;70.51;96278.50;1722129;81;25848;-86
2021/01/13 07:11:10;;;;;;;45.73;17.48;;;;;;;-1.17;70.44;96286.28;1722235;81;27581;-88
2021/01/13 07:13:54;;;;;;;44.08;17.02;;;;;;;-1.18;70.43;96289.42;1722160;81;25742;-87
2021/01/13 07:16:28;;;;;;;29.23;12.40;;;;;;;-1.17;70.38;96292.41;1717109;83;25781;-84
2021/01/13 07:19:00;;;;;;;72.03;28.85;;;;;;;-1.15;70.38;96299.69;1706808;82;26314;-90
2021/01/13 07:21:40;;;;;;;50.38;21.65;;;;;;;-1.09;70.35;96304.31;1702862;83;26065;-87
2021/01/13 07:24:16;;;;;;;42.67;19.65;;;;;;;-1.09;70.28;96290.27;1715085;83;28833;-85
2021/01/13 07:26:45;;;;;;;55.43;26.97;;;;;;;-1.09;70.29;96301.66;1722155;82;25767;-88
2021/01/13 07:29:13;;;;;;;44.83;21.65;;;;;;;-1.07;70.47;96299.34;1722149;82;26051;-85
2021/01/13 07:31:40;;;;;;;50.52;23.95;;;;;;;-1.06;70.63;96307.62;1726316;81;26397;-87
2021/01/13 07:34:38;;;;;;;51.25;24.43;;;;;;;-1.04;70.68;96309.61;1716847;83;25807;-87
2021/01/13 07:37:23;;;;;;;43.23;22.73;;;;;;;-1.02;70.73;96304.98;1714413;83;27521;-85
2021/01/13 07:40:29;;;;;;;22.37;11.97;;;;;;;-1.00;70.76;96310.45;1722732;83;25668;-86
2021/01/13 07:43:09;;;;;;;28.65;14.70;;;;;;;-0.97;70.85;96300.03;1759189;81;26402;-84
2021/01/13 07:45:47;;;;;;;33.05;18.17;;;;;;;-0.89;70.93;96305.31;1757639;81;25833;-87
2021/01/13 07:48:44;;;;;;;25.08;14.45;;;;;;;-0.86;70.60;96308.95;1759657;81;25861;-86
2021/01/13 07:51:17;;;;;;;19.52;9.80;;;;;;;-0.88;70.55;96306.97;1756340;81;28274;-87
2021/01/13 07:53:51;;;;;;;18.57;10.72;;;;;;;-0.86;70.47;96303.66;1759961;81;26237;-87
2021/01/13 07:56:22;;;;;;;16.70;7.00;;;;;;;-0.85;70.49;96310.12;1755580;81;25809;-86
2021/01/13 07:59:14;;;;;;;13.78;5.05;;;;;;;-0.80;70.44;96309.10;1759459;80;25839;-85
2021/01/13 08:02:07;;;;;;;12.78;4.92;;;;;;;-0.84;70.25;96313.56;1735129;82;25690;-87
2021/01/13 08:05:11;;;;;;;;;;;;;;;-0.91;70.20;96311.27;1741227;81;28557;-83
2021/01/13 08:07:41;;;;;;;18.35;10.23;;;;;;;-0.88;70.24;96318.39;1738537;82;25488;-85
2021/01/13 08:10:10;;;;;;;19.05;8.70;;;;;;;-0.86;70.29;96325.68;1738543;82;25772;-85
2021/01/13 08:13:30;;;;;;;17.27;7.72;;;;;;;-0.83;70.31;96329.80;1738656;81;25829;-86
2021/01/13 08:16:25;;;;;;;36.85;19.45;;;;;;;-0.86;70.12;96332.30;1738693;81;25751;-84
2021/01/13 08:19:09;;;;;;;34.13;17.60;;;;;;;-0.83;70.28;96324.50;1738679;82;27435;-85
2021/01/13 08:21:40;;;;;;;;;;;;;;;-0.77;70.07;96322.52;1741087;82;26856;-84
2021/01/13 08:24:13;;;;;;;38.78;19.50;;;;;;;-0.73;69.99;96318.55;1738559;82;25742;-85
2021/01/13 08:26:39;;;;;;;26.40;13.68;;;;;;;-0.68;69.97;96332.11;1737799;82;27858;-84
2021/01/13 08:29:11;;;;;;;28.00;14.23;;;;;;;-0.65;69.81;96341.05;1738686;82;25766;-85
2021/01/13 08:31:42;;;;;;;18.65;9.85;;;;;;;-0.63;69.81;96338.23;1737054;82;27516;-86
2021/01/13 08:34:11;;;;;;;19.27;9.15;;;;;;;-0.56;69.73;96341.86;1738625;82;25853;-85
2021/01/13 08:36:54;;;;;;;9.95;5.35;;;;;;;-0.55;69.62;96341.70;1738687;82;25836;-86
2021/01/13 08:39:29;;;;;;;21.90;9.80;;;;;;;-0.56;69.49;96338.72;1738494;82;26731;-84
2021/01/13 08:42:21;;;;;;;19.23;9.80;;;;;;;-0.65;69.10;96339.73;1738610;82;25740;-85
2021/01/13 08:44:50;;;;;;;8.50;4.37;;;;;;;-0.60;69.02;96340.03;1726343;82;28469;-86
2021/01/13 08:47:18;;;;;;;16.82;6.47;;;;;;;-0.51;68.76;96339.55;1738634;82;25814;-83
2021/01/13 08:49:45;;;;;;;11.03;5.87;;;;;;;-0.50;68.57;96323.97;1738462;82;25718;-86
2021/01/13 08:52:26;;;;;;;12.80;6.35;;;;;;;-0.51;68.28;96323.14;1730774;82;25909;-86
2021/01/13 08:55:01;;;;;;;22.80;11.20;;;;;;;-0.42;68.31;96327.92;1730789;82;25970;-84
2021/01/13 08:57:53;;;;;;;19.35;10.35;;;;;;;-0.32;68.22;96334.35;1730792;82;28581;-83
2021/01/13 09:00:23;;;;;;;14.50;9.08;;;;;;;-0.25;68.22;96340.16;1730633;82;25811;-84
2021/01/13 09:03:07;;;;;;;15.72;8.78;;;;;;;-0.17;68.12;96332.66;1730820;82;25752;-85
2021/01/13 09:05:38;;;;;;;19.07;7.47;;;;;;;-0.08;67.98;96335.11;1730814;82;25823;-85
2021/01/13 09:08:11;;;;;;;19.23;9.98;;;;;;;-0.03;67.79;96331.45;1730900;82;25834;-85
2021/01/13 09:10:52;;;;;;;21.00;8.95;;;;;;;0.01;67.71;96334.56;1730629;82;27522;-83
2021/01/13 09:13:37;;;;;;;17.27;7.45;;;;;;;0.00;67.57;96331.62;1730616;82;26356;-84
2021/01/13 09:16:29;;;;;;;12.50;6.50;;;;;;;0.03;67.65;96335.72;1730853;82;25711;-84
2021/01/13 09:19:04;;;;;;;17.20;8.58;;;;;;;0.02;67.46;96330.92;1727754;80;26016;-84
2021/01/13 09:21:41;;;;;;;18.80;7.95;;;;;;;0.06;67.36;96338.05;1732498;80;26253;-85
2021/01/13 09:24:13;;;;;;;19.92;9.53;;;;;;;0.12;67.41;96338.17;1752161;80;27510;-85
2021/01/13 09:26:42;;;;;;;17.45;6.65;;;;;;;0.13;67.32;96337.17;1768238;80;25807;-84
2021/01/13 09:29:11;;;;;;;12.00;4.62;;;;;;;0.15;67.25;96336.50;1765330;80;26237;-84
2021/01/13 09:31:40;;;;;;;9.80;4.60;;;;;;;0.13;67.25;96338.50;1757987;80;26103;-85
2021/01/13 09:34:08;;;;;;;16.75;6.83;;;;;;;0.10;67.22;96344.17;1733912;80;25711;-85
2021/01/13 09:37:01;;;;;;;19.27;7.78;;;;;;;0.06;67.41;96341.53;1738180;80;27508;-85
2021/01/13 09:39:39;;;;;;;16.62;6.22;;;;;;;0.10;67.62;96344.67;1731586;80;25733;-85
2021/01/13 09:42:09;;;;;;;18.15;7.75;;;;;;;0.16;67.80;96346.62;1697220;83;25847;-85
2021/01/13 09:44:39;;;;;;;19.35;7.58;;;;;;;0.15;67.74;96343.14;1697514;83;25875;-85
2021/01/13 09:47:27;;;;;;;17.65;9.28;;;;;;;0.22;68.00;96342.80;1700001;83;25739;-84
2021/01/13 09:49:57;;;;;;;28.00;14.23;;;;;;;0.32;68.11;96350.04;1690970;83;27703;-85
2021/01/13 09:52:27;;;;;;;41.63;22.67;;;;;;;0.48;68.24;96340.34;1714012;82;25740;-84
2021/01/13 09:55:00;;;;;;;21.37;9.30;;;;;;;0.66;68.14;96336.40;1690010;82;25954;-85
2021/01/13 09:57:32;;;;;;;16.62;9.25;;;;;;;0.78;67.81;96330.17;1687950;83;25875;-85
2021/01/13 10:00:13;;;;;;;30.73;15.43;;;;;;;0.78;67.51;96334.66;1725466;82;26080;-84
2021/01/13 10:02:42;;;;;;;19.35;10.68;;;;;;;0.79;67.32;96330.51;1735912;81;27708;-85
2021/01/13 10:05:11;;;;;;;20.57;9.85;;;;;;;0.86;67.38;96326.13;1732296;82;26328;-84
2021/01/13 10:07:40;;;;;;;18.77;8.75;;;;;;;0.80;67.29;96315.39;1699776;83;25878;-85
2021/01/13 10:10:09;;;;;;;15.40;8.90;;;;;;;0.82;67.34;96312.06;1719026;81;25875;-85
2021/01/13 10:12:49;;;;;;;20.08;9.40;;;;;;;0.81;67.21;96301.94;1728563;82;25835;-85
2021/01/13 10:15:17;;;;;;;25.25;13.20;;;;;;;0.84;67.16;96307.41;1740092;82;28864;-85
2021/01/13 10:17:45;;;;;;;22.02;9.80;;;;;;;1.11;67.27;96305.50;1740282;81;26038;-85
2021/01/13 10:20:21;;;;;;;25.17;9.85;;;;;;;1.36;67.15;96303.45;1740323;81;25878;-84
2021/01/13 10:22:49;;;;;;;23.67;7.25;;;;;;;1.54;66.99;96306.61;1728690;81;25733;-85
2021/01/13 10:25:33;;;;;;;25.77;8.80;;;;;;;1.68;66.70;96297.81;1740316;82;25783;-85
2021/01/13 10:28:01;;;;;;;25.23;8.88;;;;;;;1.95;66.64;96300.81;1729533;82;27477;-85
2021/01/13 10:30:30;;;;;;;15.30;6.05;;;;;;;2.05;66.19;96304.05;1705882;82;26204;-87
2021/01/13 10:32:58;;;;;;;13.98;5.60;;;;;;;1.90;65.81;96308.55;1737574;82;25740;-85
2021/01/13 10:35:40;;;;;;;19.23;6.53;;;;;;;1.85;65.80;96308.27;1713503;82;26467;-85
2021/01/13 10:38:15;;;;;;;35.15;12.13;;;;;;;1.78;65.77;96306.34;1714149;83;25841;-85
2021/01/13 10:40:46;;;;;;;26.10;10.03;;;;;;;1.72;65.77;96305.73;1723057;83;27525;-85
2021/01/13 10:43:19;;;;;;;22.55;8.30;;;;;;;1.61;65.75;96308.84;1724058;83;25764;-85
2021/01/13 10:45:58;;;;;;;18.73;7.17;;;;;;;1.55;65.98;96305.60;1724185;83;25846;-85
2021/01/13 10:48:27;;;;;;;20.60;8.40;;;;;;;1.53;66.07;96307.61;1724048;83;25816;-84
2021/01/13 10:50:58;;;;;;;20.05;7.37;;;;;;;1.53;66.12;96300.96;1719918;82;25752;-85
2021/01/13 10:53:35;;;;;;;11.68;5.20;;;;;;;1.56;66.12;96292.62;1698742;84;27558;-85
2021/01/13 10:56:08;;;;;;;19.15;7.22;;;;;;;1.54;65.98;96293.31;1693713;83;25833;-84
2021/01/13 10:58:38;;;;;;;13.43;5.70;;;;;;;1.55;66.12;96290.97;1714330;83;25716;-84
2021/01/13 11:01:06;;;;;;;20.82;8.08;;;;;;;1.44;65.82;96284.78;1684296;83;25776;-85
2021/01/13 11:03:34;;;;;;;32.17;10.20;;;;;;;1.45;65.88;96289.88;1721866;82;25812;-83
2021/01/13 11:06:01;;;;;;;27.73;9.05;;;;;;;1.61;65.99;96287.57;1718287;83;27782;-84
2021/01/13 11:08:31;;;;;;;22.45;6.95;;;;;;;1.75;65.87;96274.78;1712957;82;25927;-86
2021/01/13 11:11:08;;;;;;;26.77;7.97;;;;;;;1.78;65.70;96271.76;1755012;81;25853;-84
2021/01/13 11:13:47;;;;;;;17.73;5.92;;;;;;;1.84;65.58;96286.64;1709167;83;26802;-88
2021/01/13 11:16:15;;;;;;;13.40;5.28;;;;;;;1.74;65.30;96273.13;1722292;83;25876;-85
2021/01/13 11:18:43;;;;;;;10.10;4.92;;;;;;;1.70;65.24;96269.67;1723427;83;28416;-85
2021/01/13 11:21:11;;;;;;;14.35;5.80;;;;;;;1.73;65.21;96268.81;1722454;83;25815;-85
2021/01/13 11:23:46;;;;;;;11.10;4.47;;;;;;;1.93;65.33;96274.41;1723038;83;25778;-85
2021/01/13 11:26:14;;;;;;;9.83;5.08;;;;;;;2.13;65.11;96261.34;1722076;83;26018;-86
2021/01/13 11:28:44;;;;;;;12.33;5.10;;;;;;;2.38;64.89;96262.66;1760188;81;25823;-86
2021/01/13 11:31:13;;;;;;;10.13;5.33;;;;;;;2.40;64.54;96267.80;1759738;81;28434;-86
2021/01/13 11:33:45;;;;;;;10.78;5.47;;;;;;;2.47;64.50;96263.36;1736965;81;26344;-87
2021/01/13 11:36:17;;;;;;;13.48;5.17;;;;;;;2.54;64.27;96267.73;1738645;81;25822;-88
2021/01/13 11:38:58;;;;;;;13.22;5.37;;;;;;;2.58;64.24;96267.36;1715945;83;26761;-87
2021/01/13 11:42:01;;;;;;;12.40;5.90;;;;;;;2.53;64.15;96266.11;1679164;84;25788;-88
2021/01/13 11:44:45;;;;;;;13.62;6.28;;;;;;;2.43;64.22;96268.23;1705749;84;27500;-87
2021/01/13 11:47:22;;;;;;;13.62;5.53;;;;;;;2.38;64.48;96267.98;1713198;83;26501;-88
2021/01/13 11:49:59;;;;;;;17.50;6.40;;;;;;;2.21;64.38;96258.56;1723138;83;25738;-88
2021/01/13 11:52:40;;;;;;;45.90;17.95;;;;;;;2.11;64.56;96255.38;1722679;83;25994;-87
2021/01/13 11:55:10;;;;;;;66.87;27.98;;;;;;;2.06;64.69;96248.44;1717055;83;25836;-87
2021/01/13 11:57:37;;;;;;;40.60;18.98;;;;;;;1.98;64.65;96240.58;1751243;81;27511;-88
2021/01/13 12:00:28;;;;;;;22.45;11.68;;;;;;;1.87;64.95;96243.20;1739815;81;26138;-88
2021/01/13 12:03:00;;;;;;;17.82;9.48;;;;;;;1.88;65.15;96246.70;1717072;83;25805;-86
2021/01/13 12:05:35;;;;;;;17.15;8.38;;;;;;;1.90;65.43;96246.01;1717283;83;26762;-86
2021/01/13 12:08:14;;;;;;;28.10;11.53;;;;;;;1.94;65.48;96248.59;1717116;83;25795;-85